sensor_id;sensor_type;location;lat;lon;timestamp;P1;durP1;ratioP1;P2;durP2;ratioP2
25687;SDS011;17407;51.120;3.702;2023-09-18T00:00:45;13.52;;;12.20;;
25687;SDS011;17407;51.120;3.702;2023-09-18T00:03:14;13.82;;;11.32;;
25687;SDS011;17407;51.120;3.702;2023-09-18T00:05:45;17.55;;;11.60;;
25687;SDS011;17407;51.120;3.702;2023-09-18T00:08:13;12.13;;;10.93;;
25687;SDS011;17407;51.120;3.702;2023-09-18T00:10:39;13.10;;;10.30;;
25687;SDS011;17407;51.120;3.702;2023-09-18T00:13:05;11.35;;;10.13;;
25687;SDS011;17407;51.120;3.702;2023-09-18T00:15:31;13.68;;;10.02;;
25687;SDS011;17407;51.120;3.702;2023-09-18T00:17:57;15.02;;;9.88;;
25687;SDS011;17407;51.120;3.702;2023-09-18T00:20:23;9.70;;;8.70;;
25687;SDS011;17407;51.120;3.702;2023-09-18T00:22:55;12.00;;;9.25;;
25687;SDS011;17407;51.120;3.702;2023-09-18T00:25:21;10.80;;;8.95;;
25687;SDS011;17407;51.120;3.702;2023-09-18T00:27:47;11.82;;;9.52;;
25687;SDS011;17407;51.120;3.702;2023-09-18T00:30:13;10.02;;;9.02;;
25687;SDS011;17407;51.120;3.702;2023-09-18T00:32:39;10.85;;;8.50;;
25687;SDS011;17407;51.120;3.702;2023-09-18T00:35:05;11.27;;;8.38;;
25687;SDS011;17407;51.120;3.702;2023-09-18T00:37:31;10.88;;;8.45;;
25687;SDS011;17407;51.120;3.702;2023-09-18T00:39:56;9.52;;;8.35;;
25687;SDS011;17407;51.120;3.702;2023-09-18T00:42:22;11.57;;;8.38;;
25687;SDS011;17407;51.120;3.702;2023-09-18T00:44:48;11.95;;;8.15;;
25687;SDS011;17407;51.120;3.702;2023-09-18T00:47:15;12.43;;;7.60;;
25687;SDS011;17407;51.120;3.702;2023-09-18T00:49:42;8.73;;;7.53;;
25687;SDS011;17407;51.120;3.702;2023-09-18T00:52:10;8.73;;;7.90;;
25687;SDS011;17407;51.120;3.702;2023-09-18T00:54:36;9.38;;;7.82;;
25687;SDS011;17407;51.120;3.702;2023-09-18T00:57:04;9.02;;;7.97;;
25687;SDS011;17407;51.120;3.702;2023-09-18T00:59:30;10.23;;;8.32;;
25687;SDS011;17407;51.120;3.702;2023-09-18T01:01:56;13.55;;;9.23;;
25687;SDS011;17407;51.120;3.702;2023-09-18T01:04:22;10.95;;;8.20;;
25687;SDS011;17407;51.120;3.702;2023-09-18T01:06:50;9.30;;;8.27;;
25687;SDS011;17407;51.120;3.702;2023-09-18T01:09:19;12.43;;;8.38;;
25687;SDS011;17407;51.120;3.702;2023-09-18T01:11:56;9.30;;;7.32;;
25687;SDS011;17407;51.120;3.702;2023-09-18T01:14:44;14.27;;;8.30;;
25687;SDS011;17407;51.120;3.702;2023-09-18T01:17:13;10.55;;;8.07;;
25687;SDS011;17407;51.120;3.702;2023-09-18T01:19:42;9.88;;;8.13;;
25687;SDS011;17407;51.120;3.702;2023-09-18T01:22:16;10.05;;;8.63;;
25687;SDS011;17407;51.120;3.702;2023-09-18T01:24:43;13.20;;;8.27;;
25687;SDS011;17407;51.120;3.702;2023-09-18T01:27:11;11.15;;;9.02;;
25687;SDS011;17407;51.120;3.702;2023-09-18T01:29:40;9.65;;;7.50;;
25687;SDS011;17407;51.120;3.702;2023-09-18T01:32:06;10.40;;;8.35;;
25687;SDS011;17407;51.120;3.702;2023-09-18T01:34:42;9.60;;;8.20;;
25687;SDS011;17407;51.120;3.702;2023-09-18T01:37:13;12.20;;;8.48;;
25687;SDS011;17407;51.120;3.702;2023-09-18T01:39:41;10.13;;;8.60;;
25687;SDS011;17407;51.120;3.702;2023-09-18T01:42:07;9.85;;;8.05;;
25687;SDS011;17407;51.120;3.702;2023-09-18T01:44:36;8.65;;;7.85;;
25687;SDS011;17407;51.120;3.702;2023-09-18T01:47:08;11.73;;;8.70;;
25687;SDS011;17407;51.120;3.702;2023-09-18T01:49:37;11.07;;;9.77;;
25687;SDS011;17407;51.120;3.702;2023-09-18T01:52:04;9.88;;;8.60;;
25687;SDS011;17407;51.120;3.702;2023-09-18T01:54:31;11.60;;;9.20;;
25687;SDS011;17407;51.120;3.702;2023-09-18T01:56:57;10.73;;;9.35;;
25687;SDS011;17407;51.120;3.702;2023-09-18T01:59:23;10.75;;;8.85;;
25687;SDS011;17407;51.120;3.702;2023-09-18T02:01:50;12.75;;;9.52;;
25687;SDS011;17407;51.120;3.702;2023-09-18T02:04:16;12.60;;;9.65;;
25687;SDS011;17407;51.120;3.702;2023-09-18T02:06:42;13.23;;;10.10;;
25687;SDS011;17407;51.120;3.702;2023-09-18T02:09:09;14.25;;;9.63;;
25687;SDS011;17407;51.120;3.702;2023-09-18T02:11:38;11.75;;;10.55;;
25687;SDS011;17407;51.120;3.702;2023-09-18T02:14:05;10.52;;;9.43;;
25687;SDS011;17407;51.120;3.702;2023-09-18T02:16:35;15.35;;;10.27;;
25687;SDS011;17407;51.120;3.702;2023-09-18T02:19:02;14.98;;;10.27;;
25687;SDS011;17407;51.120;3.702;2023-09-18T02:21:28;13.77;;;10.27;;
25687;SDS011;17407;51.120;3.702;2023-09-18T02:23:54;10.45;;;9.45;;
25687;SDS011;17407;51.120;3.702;2023-09-18T02:26:21;12.45;;;9.77;;
25687;SDS011;17407;51.120;3.702;2023-09-18T02:28:47;13.45;;;10.05;;
25687;SDS011;17407;51.120;3.702;2023-09-18T02:31:13;13.13;;;10.18;;
25687;SDS011;17407;51.120;3.702;2023-09-18T02:33:40;13.18;;;10.43;;
25687;SDS011;17407;51.120;3.702;2023-09-18T02:36:06;17.83;;;11.52;;
25687;SDS011;17407;51.120;3.702;2023-09-18T02:38:32;12.77;;;11.30;;
25687;SDS011;17407;51.120;3.702;2023-09-18T02:40:58;12.52;;;11.13;;
25687;SDS011;17407;51.120;3.702;2023-09-18T02:43:25;17.50;;;10.15;;
25687;SDS011;17407;51.120;3.702;2023-09-18T02:45:51;16.92;;;10.75;;
25687;SDS011;17407;51.120;3.702;2023-09-18T02:48:17;11.07;;;9.65;;
25687;SDS011;17407;51.120;3.702;2023-09-18T02:50:43;14.23;;;9.55;;
25687;SDS011;17407;51.120;3.702;2023-09-18T02:53:21;11.25;;;9.13;;
25687;SDS011;17407;51.120;3.702;2023-09-18T02:55:53;12.52;;;9.45;;
25687;SDS011;17407;51.120;3.702;2023-09-18T02:58:20;13.57;;;9.45;;
25687;SDS011;17407;51.120;3.702;2023-09-18T03:00:48;10.38;;;8.35;;
25687;SDS011;17407;51.120;3.702;2023-09-18T03:03:15;12.20;;;9.60;;
25687;SDS011;17407;51.120;3.702;2023-09-18T03:05:42;10.85;;;8.65;;
25687;SDS011;17407;51.120;3.702;2023-09-18T03:08:08;8.40;;;7.60;;
25687;SDS011;17407;51.120;3.702;2023-09-18T03:10:36;11.23;;;7.93;;
25687;SDS011;17407;51.120;3.702;2023-09-18T03:13:04;10.30;;;6.82;;
25687;SDS011;17407;51.120;3.702;2023-09-18T03:15:31;14.10;;;6.85;;
25687;SDS011;17407;51.120;3.702;2023-09-18T03:17:57;7.20;;;6.50;;
25687;SDS011;17407;51.120;3.702;2023-09-18T03:20:23;9.43;;;7.00;;
25687;SDS011;17407;51.120;3.702;2023-09-18T03:22:50;9.80;;;7.10;;
25687;SDS011;17407;51.120;3.702;2023-09-18T03:25:16;10.48;;;6.20;;
25687;SDS011;17407;51.120;3.702;2023-09-18T03:27:42;8.68;;;6.40;;
25687;SDS011;17407;51.120;3.702;2023-09-18T03:30:08;8.30;;;6.35;;
25687;SDS011;17407;51.120;3.702;2023-09-18T03:32:34;7.53;;;6.18;;
25687;SDS011;17407;51.120;3.702;2023-09-18T03:35:01;11.95;;;6.68;;
25687;SDS011;17407;51.120;3.702;2023-09-18T03:37:27;10.60;;;6.53;;
25687;SDS011;17407;51.120;3.702;2023-09-18T03:39:52;10.30;;;7.18;;
25687;SDS011;17407;51.120;3.702;2023-09-18T03:42:18;11.85;;;7.38;;
25687;SDS011;17407;51.120;3.702;2023-09-18T03:44:43;9.05;;;6.65;;
25687;SDS011;17407;51.120;3.702;2023-09-18T03:47:09;10.52;;;6.82;;
25687;SDS011;17407;51.120;3.702;2023-09-18T03:49:34;10.45;;;6.65;;
25687;SDS011;17407;51.120;3.702;2023-09-18T03:52:00;9.35;;;6.43;;
25687;SDS011;17407;51.120;3.702;2023-09-18T03:54:26;10.05;;;7.38;;
25687;SDS011;17407;51.120;3.702;2023-09-18T03:56:51;11.45;;;7.45;;
25687;SDS011;17407;51.120;3.702;2023-09-18T03:59:17;10.68;;;7.72;;
25687;SDS011;17407;51.120;3.702;2023-09-18T04:01:43;9.30;;;6.90;;
25687;SDS011;17407;51.120;3.702;2023-09-18T04:04:09;8.43;;;7.00;;
25687;SDS011;17407;51.120;3.702;2023-09-18T04:06:40;11.65;;;7.43;;
25687;SDS011;17407;51.120;3.702;2023-09-18T04:09:06;14.23;;;7.32;;
25687;SDS011;17407;51.120;3.702;2023-09-18T04:11:32;8.27;;;6.60;;
25687;SDS011;17407;51.120;3.702;2023-09-18T04:13:58;10.73;;;7.32;;
25687;SDS011;17407;51.120;3.702;2023-09-18T04:16:25;7.18;;;6.43;;
25687;SDS011;17407;51.120;3.702;2023-09-18T04:18:52;9.95;;;6.80;;
25687;SDS011;17407;51.120;3.702;2023-09-18T04:21:18;8.93;;;7.13;;
25687;SDS011;17407;51.120;3.702;2023-09-18T04:23:46;10.10;;;6.82;;
25687;SDS011;17407;51.120;3.702;2023-09-18T04:26:12;8.20;;;6.35;;
25687;SDS011;17407;51.120;3.702;2023-09-18T04:28:40;8.13;;;6.13;;
25687;SDS011;17407;51.120;3.702;2023-09-18T04:31:06;8.70;;;6.18;;
25687;SDS011;17407;51.120;3.702;2023-09-18T04:33:32;7.97;;;6.22;;
25687;SDS011;17407;51.120;3.702;2023-09-18T04:35:58;9.18;;;4.90;;
25687;SDS011;17407;51.120;3.702;2023-09-18T04:38:24;5.82;;;4.80;;
25687;SDS011;17407;51.120;3.702;2023-09-18T04:40:56;6.45;;;5.57;;
25687;SDS011;17407;51.120;3.702;2023-09-18T04:43:23;7.38;;;5.35;;
25687;SDS011;17407;51.120;3.702;2023-09-18T04:45:49;7.03;;;4.63;;
25687;SDS011;17407;51.120;3.702;2023-09-18T04:48:16;10.75;;;4.78;;
25687;SDS011;17407;51.120;3.702;2023-09-18T04:50:41;8.43;;;4.88;;
25687;SDS011;17407;51.120;3.702;2023-09-18T04:53:08;8.88;;;5.13;;
25687;SDS011;17407;51.120;3.702;2023-09-18T04:55:33;7.05;;;4.68;;
25687;SDS011;17407;51.120;3.702;2023-09-18T04:57:59;7.78;;;4.60;;
25687;SDS011;17407;51.120;3.702;2023-09-18T05:00:25;6.75;;;4.15;;
25687;SDS011;17407;51.120;3.702;2023-09-18T05:02:52;6.03;;;4.07;;
25687;SDS011;17407;51.120;3.702;2023-09-18T05:05:18;6.65;;;4.13;;
25687;SDS011;17407;51.120;3.702;2023-09-18T05:07:44;8.63;;;4.75;;
25687;SDS011;17407;51.120;3.702;2023-09-18T05:10:10;7.75;;;3.95;;
25687;SDS011;17407;51.120;3.702;2023-09-18T05:12:38;7.05;;;3.67;;
25687;SDS011;17407;51.120;3.702;2023-09-18T05:15:05;7.13;;;4.07;;
25687;SDS011;17407;51.120;3.702;2023-09-18T05:17:41;8.02;;;4.32;;
25687;SDS011;17407;51.120;3.702;2023-09-18T05:20:12;6.45;;;4.05;;
25687;SDS011;17407;51.120;3.702;2023-09-18T05:22:39;5.63;;;3.72;;
25687;SDS011;17407;51.120;3.702;2023-09-18T05:25:05;7.38;;;4.07;;
25687;SDS011;17407;51.120;3.702;2023-09-18T05:27:32;7.05;;;3.78;;
25687;SDS011;17407;51.120;3.702;2023-09-18T05:29:57;6.07;;;3.92;;
25687;SDS011;17407;51.120;3.702;2023-09-18T05:32:23;5.00;;;4.18;;
25687;SDS011;17407;51.120;3.702;2023-09-18T05:34:49;5.70;;;3.83;;
25687;SDS011;17407;51.120;3.702;2023-09-18T05:37:14;10.57;;;4.38;;
25687;SDS011;17407;51.120;3.702;2023-09-18T05:39:40;11.20;;;4.88;;
25687;SDS011;17407;51.120;3.702;2023-09-18T05:42:06;5.03;;;3.53;;
25687;SDS011;17407;51.120;3.702;2023-09-18T05:44:32;10.25;;;4.40;;
25687;SDS011;17407;51.120;3.702;2023-09-18T05:46:58;8.32;;;4.20;;
25687;SDS011;17407;51.120;3.702;2023-09-18T05:49:24;5.40;;;3.95;;
25687;SDS011;17407;51.120;3.702;2023-09-18T05:51:49;6.35;;;4.07;;
25687;SDS011;17407;51.120;3.702;2023-09-18T05:54:15;5.18;;;3.47;;
25687;SDS011;17407;51.120;3.702;2023-09-18T05:56:41;5.35;;;4.10;;
25687;SDS011;17407;51.120;3.702;2023-09-18T05:59:07;7.18;;;4.07;;
25687;SDS011;17407;51.120;3.702;2023-09-18T06:01:32;3.95;;;3.58;;
25687;SDS011;17407;51.120;3.702;2023-09-18T06:03:58;4.30;;;3.53;;
25687;SDS011;17407;51.120;3.702;2023-09-18T06:06:24;4.65;;;3.63;;
25687;SDS011;17407;51.120;3.702;2023-09-18T06:08:50;7.05;;;3.90;;
25687;SDS011;17407;51.120;3.702;2023-09-18T06:11:18;6.05;;;3.75;;
25687;SDS011;17407;51.120;3.702;2023-09-18T06:13:44;6.25;;;3.70;;
25687;SDS011;17407;51.120;3.702;2023-09-18T06:16:10;6.72;;;4.15;;
25687;SDS011;17407;51.120;3.702;2023-09-18T06:18:36;4.82;;;3.90;;
25687;SDS011;17407;51.120;3.702;2023-09-18T06:21:04;8.45;;;4.30;;
25687;SDS011;17407;51.120;3.702;2023-09-18T06:23:30;7.63;;;4.20;;
25687;SDS011;17407;51.120;3.702;2023-09-18T06:25:56;6.70;;;3.95;;
25687;SDS011;17407;51.120;3.702;2023-09-18T06:28:24;8.95;;;4.20;;
25687;SDS011;17407;51.120;3.702;2023-09-18T06:30:49;10.90;;;5.10;;
25687;SDS011;17407;51.120;3.702;2023-09-18T06:33:15;5.35;;;3.33;;
25687;SDS011;17407;51.120;3.702;2023-09-18T06:35:41;8.05;;;4.00;;
25687;SDS011;17407;51.120;3.702;2023-09-18T06:38:07;6.07;;;3.83;;
25687;SDS011;17407;51.120;3.702;2023-09-18T06:40:35;6.43;;;4.13;;
25687;SDS011;17407;51.120;3.702;2023-09-18T06:43:01;8.45;;;4.70;;
25687;SDS011;17407;51.120;3.702;2023-09-18T06:45:26;7.00;;;4.53;;
25687;SDS011;17407;51.120;3.702;2023-09-18T06:47:53;6.28;;;4.40;;
25687;SDS011;17407;51.120;3.702;2023-09-18T06:50:18;5.07;;;4.00;;
25687;SDS011;17407;51.120;3.702;2023-09-18T06:52:44;8.20;;;4.40;;
25687;SDS011;17407;51.120;3.702;2023-09-18T06:55:11;6.32;;;3.72;;
25687;SDS011;17407;51.120;3.702;2023-09-18T06:57:37;4.50;;;3.80;;
25687;SDS011;17407;51.120;3.702;2023-09-18T07:00:03;5.45;;;3.88;;
25687;SDS011;17407;51.120;3.702;2023-09-18T07:02:30;6.25;;;4.35;;
25687;SDS011;17407;51.120;3.702;2023-09-18T07:04:56;4.97;;;4.18;;
25687;SDS011;17407;51.120;3.702;2023-09-18T07:07:21;6.15;;;4.70;;
25687;SDS011;17407;51.120;3.702;2023-09-18T07:09:50;9.32;;;4.30;;
25687;SDS011;17407;51.120;3.702;2023-09-18T07:12:16;7.53;;;4.13;;
25687;SDS011;17407;51.120;3.702;2023-09-18T07:14:46;5.47;;;4.15;;
25687;SDS011;17407;51.120;3.702;2023-09-18T07:17:12;6.55;;;4.30;;
25687;SDS011;17407;51.120;3.702;2023-09-18T07:19:38;5.97;;;4.45;;
25687;SDS011;17407;51.120;3.702;2023-09-18T07:22:04;5.55;;;4.10;;
25687;SDS011;17407;51.120;3.702;2023-09-18T07:24:29;8.43;;;4.50;;
25687;SDS011;17407;51.120;3.702;2023-09-18T07:26:55;6.95;;;4.80;;
25687;SDS011;17407;51.120;3.702;2023-09-18T07:29:23;9.38;;;4.90;;
25687;SDS011;17407;51.120;3.702;2023-09-18T07:31:50;7.25;;;5.30;;
25687;SDS011;17407;51.120;3.702;2023-09-18T07:34:16;7.75;;;5.82;;
25687;SDS011;17407;51.120;3.702;2023-09-18T07:36:45;8.95;;;5.95;;
25687;SDS011;17407;51.120;3.702;2023-09-18T07:39:10;7.18;;;5.00;;
25687;SDS011;17407;51.120;3.702;2023-09-18T07:41:39;10.20;;;5.47;;
25687;SDS011;17407;51.120;3.702;2023-09-18T07:44:05;9.70;;;5.32;;
25687;SDS011;17407;51.120;3.702;2023-09-18T07:46:30;10.90;;;5.63;;
25687;SDS011;17407;51.120;3.702;2023-09-18T07:48:56;11.80;;;5.20;;
25687;SDS011;17407;51.120;3.702;2023-09-18T07:51:22;11.52;;;5.03;;
25687;SDS011;17407;51.120;3.702;2023-09-18T07:53:48;7.95;;;4.82;;
25687;SDS011;17407;51.120;3.702;2023-09-18T07:56:14;10.20;;;5.30;;
25687;SDS011;17407;51.120;3.702;2023-09-18T07:58:40;9.88;;;5.70;;
25687;SDS011;17407;51.120;3.702;2023-09-18T08:01:05;12.30;;;5.30;;
25687;SDS011;17407;51.120;3.702;2023-09-18T08:03:31;6.70;;;4.80;;
25687;SDS011;17407;51.120;3.702;2023-09-18T08:05:57;9.30;;;4.97;;
25687;SDS011;17407;51.120;3.702;2023-09-18T08:08:23;7.50;;;4.82;;
25687;SDS011;17407;51.120;3.702;2023-09-18T08:10:50;6.97;;;4.82;;
25687;SDS011;17407;51.120;3.702;2023-09-18T08:13:16;9.15;;;4.93;;
25687;SDS011;17407;51.120;3.702;2023-09-18T08:15:42;6.72;;;5.35;;
25687;SDS011;17407;51.120;3.702;2023-09-18T08:18:09;10.55;;;5.47;;
25687;SDS011;17407;51.120;3.702;2023-09-18T08:20:41;9.45;;;5.47;;
25687;SDS011;17407;51.120;3.702;2023-09-18T08:23:08;7.32;;;5.15;;
25687;SDS011;17407;51.120;3.702;2023-09-18T08:25:34;10.77;;;5.53;;
25687;SDS011;17407;51.120;3.702;2023-09-18T08:28:01;15.25;;;5.53;;
25687;SDS011;17407;51.120;3.702;2023-09-18T08:30:28;10.23;;;5.65;;
25687;SDS011;17407;51.120;3.702;2023-09-18T08:32:54;9.50;;;6.40;;
25687;SDS011;17407;51.120;3.702;2023-09-18T08:35:19;7.30;;;5.07;;
25687;SDS011;17407;51.120;3.702;2023-09-18T08:37:45;10.60;;;5.70;;
25687;SDS011;17407;51.120;3.702;2023-09-18T08:40:11;10.68;;;6.45;;
25687;SDS011;17407;51.120;3.702;2023-09-18T08:42:39;6.63;;;5.25;;
25687;SDS011;17407;51.120;3.702;2023-09-18T08:45:09;5.50;;;4.97;;
25687;SDS011;17407;51.120;3.702;2023-09-18T08:47:35;8.32;;;5.00;;
25687;SDS011;17407;51.120;3.702;2023-09-18T08:50:04;8.60;;;5.07;;
25687;SDS011;17407;51.120;3.702;2023-09-18T08:52:32;11.85;;;4.85;;
25687;SDS011;17407;51.120;3.702;2023-09-18T08:54:58;6.95;;;4.65;;
25687;SDS011;17407;51.120;3.702;2023-09-18T08:57:25;7.35;;;4.30;;
25687;SDS011;17407;51.120;3.702;2023-09-18T08:59:55;9.13;;;4.57;;
25687;SDS011;17407;51.120;3.702;2023-09-18T09:02:23;9.80;;;4.75;;
25687;SDS011;17407;51.120;3.702;2023-09-18T09:04:48;10.48;;;4.22;;
25687;SDS011;17407;51.120;3.702;2023-09-18T09:07:15;6.03;;;3.90;;
25687;SDS011;17407;51.120;3.702;2023-09-18T09:09:41;9.50;;;4.00;;
25687;SDS011;17407;51.120;3.702;2023-09-18T09:12:07;8.07;;;3.72;;
25687;SDS011;17407;51.120;3.702;2023-09-18T09:14:33;8.35;;;3.78;;
25687;SDS011;17407;51.120;3.702;2023-09-18T09:16:59;9.05;;;3.42;;
25687;SDS011;17407;51.120;3.702;2023-09-18T09:19:31;5.25;;;3.67;;
25687;SDS011;17407;51.120;3.702;2023-09-18T09:22:01;6.07;;;3.90;;
25687;SDS011;17407;51.120;3.702;2023-09-18T09:24:41;7.20;;;3.35;;
25687;SDS011;17407;51.120;3.702;2023-09-18T09:27:10;5.70;;;3.55;;
25687;SDS011;17407;51.120;3.702;2023-09-18T09:29:37;6.05;;;3.70;;
25687;SDS011;17407;51.120;3.702;2023-09-18T09:34:40;6.43;;;3.75;;
25687;SDS011;17407;51.120;3.702;2023-09-18T09:37:06;9.88;;;3.97;;
25687;SDS011;17407;51.120;3.702;2023-09-18T09:39:33;5.60;;;3.78;;
25687;SDS011;17407;51.120;3.702;2023-09-18T09:41:59;7.55;;;3.70;;
25687;SDS011;17407;51.120;3.702;2023-09-18T09:44:27;7.45;;;3.78;;
25687;SDS011;17407;51.120;3.702;2023-09-18T09:46:54;6.97;;;4.45;;
25687;SDS011;17407;51.120;3.702;2023-09-18T09:49:19;5.72;;;4.05;;
25687;SDS011;17407;51.120;3.702;2023-09-18T09:51:47;8.23;;;4.55;;
25687;SDS011;17407;51.120;3.702;2023-09-18T09:54:13;9.43;;;4.30;;
25687;SDS011;17407;51.120;3.702;2023-09-18T09:56:43;11.70;;;5.18;;
25687;SDS011;17407;51.120;3.702;2023-09-18T09:59:11;11.02;;;5.07;;
25687;SDS011;17407;51.120;3.702;2023-09-18T10:01:38;10.70;;;4.60;;
25687;SDS011;17407;51.120;3.702;2023-09-18T10:04:07;8.80;;;4.60;;
25687;SDS011;17407;51.120;3.702;2023-09-18T10:06:37;9.23;;;4.10;;
25687;SDS011;17407;51.120;3.702;2023-09-18T10:09:06;13.00;;;4.20;;
25687;SDS011;17407;51.120;3.702;2023-09-18T10:11:35;6.38;;;4.25;;
25687;SDS011;17407;51.120;3.702;2023-09-18T10:14:12;7.13;;;4.10;;
25687;SDS011;17407;51.120;3.702;2023-09-18T10:16:49;4.95;;;3.60;;
25687;SDS011;17407;51.120;3.702;2023-09-18T10:25:21;4.93;;;3.80;;
25687;SDS011;17407;51.120;3.702;2023-09-18T10:27:56;5.70;;;4.13;;
25687;SDS011;17407;51.120;3.702;2023-09-18T10:30:27;7.82;;;4.60;;
25687;SDS011;17407;51.120;3.702;2023-09-18T10:32:54;6.18;;;3.80;;
25687;SDS011;17407;51.120;3.702;2023-09-18T10:35:22;8.48;;;3.83;;
25687;SDS011;17407;51.120;3.702;2023-09-18T10:37:49;11.63;;;4.07;;
25687;SDS011;17407;51.120;3.702;2023-09-18T10:40:19;8.13;;;4.15;;
25687;SDS011;17407;51.120;3.702;2023-09-18T10:42:46;7.25;;;3.60;;
25687;SDS011;17407;51.120;3.702;2023-09-18T10:45:15;7.25;;;3.65;;
25687;SDS011;17407;51.120;3.702;2023-09-18T10:47:42;4.55;;;3.17;;
25687;SDS011;17407;51.120;3.702;2023-09-18T10:50:12;11.45;;;3.50;;
25687;SDS011;17407;51.120;3.702;2023-09-18T10:52:52;6.05;;;3.83;;
25687;SDS011;17407;51.120;3.702;2023-09-18T10:55:18;12.43;;;3.50;;
25687;SDS011;17407;51.120;3.702;2023-09-18T10:57:49;6.35;;;3.35;;
25687;SDS011;17407;51.120;3.702;2023-09-18T11:00:16;6.22;;;3.63;;
25687;SDS011;17407;51.120;3.702;2023-09-18T11:02:47;7.78;;;3.60;;
25687;SDS011;17407;51.120;3.702;2023-09-18T11:05:32;6.78;;;3.28;;
25687;SDS011;17407;51.120;3.702;2023-09-18T11:11:00;4.60;;;3.25;;
25687;SDS011;17407;51.120;3.702;2023-09-18T11:13:35;10.98;;;3.28;;
25687;SDS011;17407;51.120;3.702;2023-09-18T11:21:25;4.43;;;2.70;;
25687;SDS011;17407;51.120;3.702;2023-09-18T11:23:59;8.70;;;3.05;;
25687;SDS011;17407;51.120;3.702;2023-09-18T11:26:29;4.13;;;2.83;;
25687;SDS011;17407;51.120;3.702;2023-09-18T11:29:13;3.72;;;2.50;;
25687;SDS011;17407;51.120;3.702;2023-09-18T11:31:48;3.20;;;2.67;;
25687;SDS011;17407;51.120;3.702;2023-09-18T11:34:28;4.30;;;2.90;;
25687;SDS011;17407;51.120;3.702;2023-09-18T11:37:00;4.05;;;2.35;;
25687;SDS011;17407;51.120;3.702;2023-09-18T11:39:38;4.32;;;2.65;;
25687;SDS011;17407;51.120;3.702;2023-09-18T11:42:09;4.80;;;2.55;;
25687;SDS011;17407;51.120;3.702;2023-09-18T11:44:36;4.28;;;2.78;;
25687;SDS011;17407;51.120;3.702;2023-09-18T11:47:07;5.45;;;2.53;;
25687;SDS011;17407;51.120;3.702;2023-09-18T11:49:37;5.10;;;2.70;;
25687;SDS011;17407;51.120;3.702;2023-09-18T11:52:07;6.97;;;2.28;;
25687;SDS011;17407;51.120;3.702;2023-09-18T11:54:34;4.47;;;2.35;;
25687;SDS011;17407;51.120;3.702;2023-09-18T11:57:03;4.22;;;2.55;;
25687;SDS011;17407;51.120;3.702;2023-09-18T11:59:38;3.83;;;2.97;;
25687;SDS011;17407;51.120;3.702;2023-09-18T12:02:11;6.40;;;2.53;;
25687;SDS011;17407;51.120;3.702;2023-09-18T12:04:45;6.40;;;2.63;;
25687;SDS011;17407;51.120;3.702;2023-09-18T12:07:13;8.80;;;2.90;;
25687;SDS011;17407;51.120;3.702;2023-09-18T12:09:39;6.25;;;2.63;;
25687;SDS011;17407;51.120;3.702;2023-09-18T12:12:05;3.20;;;2.63;;
25687;SDS011;17407;51.120;3.702;2023-09-18T12:14:32;5.32;;;2.63;;
25687;SDS011;17407;51.120;3.702;2023-09-18T12:17:02;3.40;;;2.78;;
25687;SDS011;17407;51.120;3.702;2023-09-18T12:19:29;4.28;;;2.55;;
25687;SDS011;17407;51.120;3.702;2023-09-18T12:21:55;5.32;;;2.83;;
25687;SDS011;17407;51.120;3.702;2023-09-18T12:26:48;5.18;;;2.90;;
25687;SDS011;17407;51.120;3.702;2023-09-18T12:29:14;5.45;;;2.75;;
25687;SDS011;17407;51.120;3.702;2023-09-18T12:31:40;4.30;;;2.42;;
25687;SDS011;17407;51.120;3.702;2023-09-18T12:34:13;7.25;;;2.50;;
25687;SDS011;17407;51.120;3.702;2023-09-18T12:36:43;7.75;;;2.50;;
25687;SDS011;17407;51.120;3.702;2023-09-18T12:39:12;9.40;;;2.65;;
25687;SDS011;17407;51.120;3.702;2023-09-18T12:41:41;8.10;;;2.67;;
25687;SDS011;17407;51.120;3.702;2023-09-18T12:44:08;9.45;;;3.20;;
25687;SDS011;17407;51.120;3.702;2023-09-18T12:46:35;4.70;;;3.00;;
25687;SDS011;17407;51.120;3.702;2023-09-18T12:49:17;7.28;;;3.13;;
25687;SDS011;17407;51.120;3.702;2023-09-18T12:51:58;8.43;;;2.85;;
25687;SDS011;17407;51.120;3.702;2023-09-18T12:57:25;6.15;;;2.75;;
25687;SDS011;17407;51.120;3.702;2023-09-18T12:59:50;7.10;;;2.55;;
25687;SDS011;17407;51.120;3.702;2023-09-18T13:02:19;8.45;;;2.40;;
25687;SDS011;17407;51.120;3.702;2023-09-18T13:04:54;2.85;;;2.42;;
25687;SDS011;17407;51.120;3.702;2023-09-18T13:07:21;6.20;;;2.50;;
25687;SDS011;17407;51.120;3.702;2023-09-18T13:10:00;6.93;;;2.72;;
25687;SDS011;17407;51.120;3.702;2023-09-18T13:15:49;5.82;;;2.75;;
25687;SDS011;17407;51.120;3.702;2023-09-18T13:18:10;8.68;;;3.22;;
25687;SDS011;17407;51.120;3.702;2023-09-18T13:20:36;20.63;;;3.55;;
25687;SDS011;17407;51.120;3.702;2023-09-18T13:23:02;12.65;;;4.20;;
25687;SDS011;17407;51.120;3.702;2023-09-18T13:25:32;9.32;;;3.35;;
25687;SDS011;17407;51.120;3.702;2023-09-18T13:28:05;4.72;;;2.40;;
25687;SDS011;17407;51.120;3.702;2023-09-18T13:30:32;6.68;;;2.88;;
25687;SDS011;17407;51.120;3.702;2023-09-18T13:33:01;7.45;;;2.90;;
25687;SDS011;17407;51.120;3.702;2023-09-18T13:35:29;5.80;;;3.05;;
25687;SDS011;17407;51.120;3.702;2023-09-18T13:37:55;6.75;;;2.70;;
25687;SDS011;17407;51.120;3.702;2023-09-18T13:40:20;3.42;;;2.33;;
25687;SDS011;17407;51.120;3.702;2023-09-18T13:42:47;3.80;;;2.50;;
25687;SDS011;17407;51.120;3.702;2023-09-18T13:45:16;4.18;;;2.95;;
25687;SDS011;17407;51.120;3.702;2023-09-18T13:47:42;5.68;;;3.30;;
25687;SDS011;17407;51.120;3.702;2023-09-18T13:50:08;8.73;;;3.05;;
25687;SDS011;17407;51.120;3.702;2023-09-18T13:52:34;5.40;;;2.72;;
25687;SDS011;17407;51.120;3.702;2023-09-18T13:55:01;5.28;;;2.80;;
25687;SDS011;17407;51.120;3.702;2023-09-18T13:57:34;3.63;;;2.63;;
25687;SDS011;17407;51.120;3.702;2023-09-18T14:00:01;4.07;;;2.33;;
25687;SDS011;17407;51.120;3.702;2023-09-18T14:02:32;3.95;;;2.78;;
25687;SDS011;17407;51.120;3.702;2023-09-18T14:04:58;4.10;;;2.97;;
25687;SDS011;17407;51.120;3.702;2023-09-18T14:07:24;4.75;;;2.58;;
25687;SDS011;17407;51.120;3.702;2023-09-18T14:09:49;6.30;;;3.13;;
25687;SDS011;17407;51.120;3.702;2023-09-18T14:12:16;3.58;;;2.97;;
25687;SDS011;17407;51.120;3.702;2023-09-18T14:14:42;3.03;;;2.70;;
25687;SDS011;17407;51.120;3.702;2023-09-18T14:17:09;7.35;;;3.17;;
25687;SDS011;17407;51.120;3.702;2023-09-18T14:19:35;5.63;;;2.80;;
25687;SDS011;17407;51.120;3.702;2023-09-18T14:22:03;4.80;;;2.60;;
25687;SDS011;17407;51.120;3.702;2023-09-18T14:24:32;6.85;;;3.13;;
25687;SDS011;17407;51.120;3.702;2023-09-18T14:26:59;5.85;;;2.80;;
25687;SDS011;17407;51.120;3.702;2023-09-18T14:29:25;4.15;;;2.63;;
25687;SDS011;17407;51.120;3.702;2023-09-18T14:31:52;7.90;;;3.10;;
25687;SDS011;17407;51.120;3.702;2023-09-18T14:34:18;7.25;;;2.53;;
25687;SDS011;17407;51.120;3.702;2023-09-18T14:36:43;5.63;;;2.28;;
25687;SDS011;17407;51.120;3.702;2023-09-18T14:39:10;3.22;;;1.95;;
25687;SDS011;17407;51.120;3.702;2023-09-18T14:41:36;6.88;;;2.30;;
25687;SDS011;17407;51.120;3.702;2023-09-18T14:44:06;5.05;;;2.47;;
25687;SDS011;17407;51.120;3.702;2023-09-18T14:46:34;6.50;;;2.78;;
25687;SDS011;17407;51.120;3.702;2023-09-18T14:49:01;7.60;;;2.70;;
25687;SDS011;17407;51.120;3.702;2023-09-18T14:51:27;7.35;;;2.78;;
25687;SDS011;17407;51.120;3.702;2023-09-18T14:53:54;5.25;;;2.25;;
25687;SDS011;17407;51.120;3.702;2023-09-18T14:56:23;5.28;;;2.40;;
25687;SDS011;17407;51.120;3.702;2023-09-18T14:58:49;8.43;;;2.83;;
25687;SDS011;17407;51.120;3.702;2023-09-18T15:01:17;7.47;;;2.47;;
25687;SDS011;17407;51.120;3.702;2023-09-18T15:03:43;4.35;;;2.45;;
25687;SDS011;17407;51.120;3.702;2023-09-18T15:06:09;10.07;;;2.72;;
25687;SDS011;17407;51.120;3.702;2023-09-18T15:08:36;5.72;;;2.33;;
25687;SDS011;17407;51.120;3.702;2023-09-18T15:11:02;6.93;;;2.50;;